Etusivu
METAR-TAF:

METAR-TAF

Lentoasemat :

Troy, Michigan, Yhdysvallat

Leveyspiiri: 42-32-35N, Pituuspiiri: 083-10-40W, korkeus merenpinnasta: 222 m

Tämänhetkinen sää

Tämä raportti tehtiin 5 minuuttia sitten, kello 05.40 UTC
tyyntä
Lämpötila 19°C
Kosteus 88%
Ilmanpaine 1014 hPa
Näkyvyys: 16.1 km
Hajonneita pilviä 6500 ft:n korkeudessa
Hajonneita pilviä 8000 ft:n korkeudessa
Hajonneita pilviä 11000 ft:n korkeudessa

METAR: KVLL 220540Z AUTO 00000KT 10SM BKN065 BKN080 BKN110 19/17 A2995 RMK AO2 T01880165

Aika: 01:45 (05:45 UTC)


TAF: puuttuu

Säähavainnot ja -ennusteet yli 4000 lentoasemalta (METAR- ja TAF-raportit).

Käytössä olevat sääasemat on merkitty karttaan keltaisilla ja punaisilla pisteillä.

Aseta hiiri pisteen päälle nähdäksesi sääaseman nimen.

Klikkaa sitten nähdäksesi säähavainnot ja -ennusteet.

Kartan vaihtaminen: klikkaa mustalla rastilla varustettuja vihreitä pisteitä, niin voit zoomata sisään; viivalla varustettua vihreää pistettä, niin voit zoomata ulos tai vihreitä nuolia, niin pääset viereisille kartoille.


METAR-TAF: